Time;durP1;ratioP1;P1;durP2;ratioP2;P2;SDS_P1;SDS_P2;PMS_P1;PMS_P2;Temp;Humidity;BMP_temperature;BMP_pressure;BME280_temperature;BME280_humidity;BME280_pressure;Samples;Min_cycle;Max_cycle;Signal;HPM_P1;HPM_P2
2023/05/03 00:00:54;;;;;;;6.97;3.27;;;6.10;99.90;;;;;;5034288;28;20191;-49
2023/05/03 00:03:22;;;;;;;9.13;3.87;;;6.10;99.90;;;;;;5034320;28;20684;-50
2023/05/03 00:05:48;;;;;;;9.63;3.80;;;6.00;99.90;;;;;;5033818;28;20273;-49
2023/05/03 00:08:14;;;;;;;8.73;4.07;;;6.00;99.90;;;;;;5033768;28;20183;-50
2023/05/03 00:10:40;;;;;;;11.00;3.73;;;5.90;99.90;;;;;;5034033;28;20256;-50
2023/05/03 00:13:06;;;;;;;6.30;3.83;;;5.80;99.90;;;;;;5033736;28;20372;-49
2023/05/03 00:15:32;;;;;;;9.47;4.03;;;5.70;99.90;;;;;;5034395;28;20177;-49
2023/05/03 00:17:57;;;;;;;8.37;4.10;;;5.70;99.90;;;;;;5033918;28;20303;-49
2023/05/03 00:20:24;;;;;;;9.10;4.27;;;5.60;99.90;;;;;;5033715;28;20184;-48
2023/05/03 00:22:50;;;;;;;7.87;3.80;;;5.60;99.90;;;;;;5033962;28;20266;-50
2023/05/03 00:25:15;;;;;;;6.30;3.77;;;5.50;99.90;;;;;;5033726;28;20189;-49
2023/05/03 00:27:41;;;;;;;8.47;4.00;;;5.50;99.90;;;;;;5033951;28;20629;-49
2023/05/03 00:30:08;;;;;;;9.77;3.77;;;5.50;99.90;;;;;;5034227;28;20184;-51
2023/05/03 00:32:34;;;;;;;8.03;4.17;;;5.40;99.90;;;;;;5034062;28;20210;-49
2023/05/03 00:35:00;;;;;;;6.30;3.73;;;5.40;99.90;;;;;;5033443;28;20252;-50
2023/05/03 00:37:26;;;;;;;12.40;4.00;;;5.40;99.90;;;;;;5033358;28;20259;-50
2023/05/03 00:39:52;;;;;;;10.03;4.67;;;5.30;99.90;;;;;;5033701;28;20233;-50
2023/05/03 00:42:18;;;;;;;7.60;4.40;;;5.30;99.90;;;;;;5033573;28;20250;-49
2023/05/03 00:44:43;;;;;;;10.30;4.07;;;5.20;99.90;;;;;;5033609;28;20639;-50
2023/05/03 00:47:09;;;;;;;6.50;3.87;;;5.20;99.90;;;;;;5033645;28;20181;-49
2023/05/03 00:49:35;;;;;;;9.03;4.20;;;5.10;99.90;;;;;;5033216;28;20214;-49
2023/05/03 00:52:01;;;;;;;8.23;4.30;;;5.10;99.90;;;;;;5033537;28;20313;-48
2023/05/03 00:54:27;;;;;;;10.23;4.10;;;5.10;99.90;;;;;;5036555;28;20181;-49
2023/05/03 00:56:55;;;;;;;7.13;4.10;;;5.10;99.90;;;;;;5037703;28;20208;-49
2023/05/03 00:59:20;;;;;;;9.47;3.80;;;5.10;99.90;;;;;;5037949;28;20183;-50
2023/05/03 01:01:51;;;;;;;6.57;4.03;;;5.10;99.90;;;;;;5038432;28;20176;-49
2023/05/03 01:04:17;;;;;;;6.30;3.77;;;5.10;99.90;;;;;;5043925;28;20262;-49
2023/05/03 01:07:17;;;;;;;5.70;3.53;;;5.00;99.90;;;;;;5047456;28;20194;-50
2023/05/03 01:10:04;;;;;;;7.57;3.83;;;5.00;99.90;;;;;;5037685;28;20183;-49
2023/05/03 01:13:00;;;;;;;7.40;4.10;;;4.90;99.90;;;;;;5037191;28;20246;-48
2023/05/03 01:15:40;;;;;;;8.97;4.27;;;4.90;99.90;;;;;;5037474;28;20215;-48
2023/05/03 01:18:11;;;;;;;12.27;4.43;;;4.80;99.90;;;;;;5037002;28;20195;-49
2023/05/03 01:20:38;;;;;;;6.77;4.13;;;4.80;99.90;;;;;;5037373;28;20173;-50
2023/05/03 01:23:13;;;;;;;10.33;5.07;;;4.80;99.90;;;;;;5036840;28;20234;-48
2023/05/03 01:25:39;;;;;;;9.50;4.50;;;4.80;99.90;;;;;;5037025;28;20160;-50
2023/05/03 01:28:04;;;;;;;11.47;4.43;;;4.70;99.90;;;;;;5036845;28;20195;-49
2023/05/03 01:30:31;;;;;;;7.33;4.00;;;4.70;99.90;;;;;;5036804;28;20537;-49
2023/05/03 01:33:15;;;;;;;8.63;4.20;;;4.70;99.90;;;;;;5036924;28;20291;-49
2023/05/03 01:36:02;;;;;;;10.33;4.07;;;4.70;99.90;;;;;;5037002;28;20168;-50
2023/05/03 01:38:32;;;;;;;10.33;4.20;;;4.70;99.90;;;;;;5036909;28;20168;-51
2023/05/03 01:41:01;;;;;;;13.03;4.40;;;4.70;99.90;;;;;;5036572;28;20171;-50
2023/05/03 01:43:30;;;;;;;9.93;4.10;;;4.70;99.90;;;;;;5036476;28;20191;-50
2023/05/03 01:45:56;;;;;;;11.67;4.67;;;4.70;99.90;;;;;;5036711;28;20176;-50
2023/05/03 01:48:22;;;;;;;5.47;4.07;;;4.60;99.90;;;;;;5036291;28;20195;-50
2023/05/03 01:50:47;;;;;;;7.40;4.30;;;4.60;99.90;;;;;;5036657;28;20194;-50
2023/05/03 01:53:13;;;;;;;9.17;4.03;;;4.60;99.90;;;;;;5036358;28;20199;-48
2023/05/03 01:55:38;;;;;;;8.03;3.50;;;4.50;99.90;;;;;;5036897;28;20207;-50
2023/05/03 01:58:05;;;;;;;6.47;3.83;;;4.50;99.90;;;;;;5036141;28;20696;-50
2023/05/03 02:00:31;;;;;;;9.53;4.10;;;4.40;99.90;;;;;;5036275;28;20649;-50
2023/05/03 02:02:57;;;;;;;16.03;4.57;;;4.40;99.90;;;;;;5036711;28;20203;-50
2023/05/03 02:05:22;;;;;;;9.23;4.07;;;4.30;99.90;;;;;;5036274;28;20229;-48
2023/05/03 02:07:48;;;;;;;9.07;4.53;;;4.30;99.90;;;;;;5038520;28;20702;-49
2023/05/03 02:10:14;;;;;;;8.53;4.50;;;4.30;99.90;;;;;;5020691;28;20648;-49
2023/05/03 02:12:41;;;;;;;14.13;4.33;;;4.20;99.90;;;;;;5036172;28;20246;-49
2023/05/03 02:15:07;;;;;;;7.17;4.70;;;4.20;99.90;;;;;;5037099;28;20642;-49
2023/05/03 02:17:33;;;;;;;14.43;4.97;;;4.20;99.90;;;;;;5035874;28;20259;-49
2023/05/03 02:19:58;;;;;;;11.00;4.27;;;4.20;99.90;;;;;;5035870;28;20204;-48
2023/05/03 02:22:24;;;;;;;6.17;4.17;;;4.20;99.90;;;;;;5035822;28;20208;-49
2023/05/03 02:24:49;;;;;;;11.73;4.90;;;4.10;99.90;;;;;;5036055;28;20182;-48
2023/05/03 02:27:15;;;;;;;12.23;4.93;;;4.10;99.90;;;;;;5035747;28;20664;-48
2023/05/03 02:29:41;;;;;;;9.47;4.73;;;4.10;99.90;;;;;;5036032;28;20173;-49
2023/05/03 02:32:06;;;;;;;8.67;5.10;;;4.20;99.90;;;;;;5035878;28;20548;-48
2023/05/03 02:34:32;;;;;;;9.70;4.40;;;4.10;99.90;;;;;;5035578;28;20217;-49
2023/05/03 02:36:58;;;;;;;8.67;4.80;;;4.10;99.90;;;;;;5035628;28;20215;-51
2023/05/03 02:39:23;;;;;;;11.50;5.00;;;4.10;99.90;;;;;;5035854;28;20182;-50
2023/05/03 02:41:49;;;;;;;6.57;4.63;;;4.10;99.90;;;;;;5036215;28;20263;-50
2023/05/03 02:44:15;;;;;;;10.67;5.00;;;4.10;99.90;;;;;;5035613;28;20186;-49
2023/05/03 02:46:40;;;;;;;13.13;5.63;;;4.10;99.90;;;;;;5017630;28;20191;-50
2023/05/03 02:49:07;;;;;;;8.23;4.17;;;4.10;99.90;;;;;;5035245;28;20198;-50
2023/05/03 02:51:32;;;;;;;9.40;4.07;;;4.10;99.90;;;;;;5035378;28;20186;-49
2023/05/03 02:53:58;;;;;;;8.10;4.53;;;4.00;99.90;;;;;;5035281;28;20196;-49
2023/05/03 02:56:27;;;;;;;10.33;4.77;;;4.00;99.90;;;;;;5035393;28;20205;-48
2023/05/03 02:58:53;;;;;;;8.63;4.60;;;4.00;99.90;;;;;;5035174;28;20559;-50
2023/05/03 03:01:19;;;;;;;5.57;4.37;;;3.90;99.90;;;;;;5035329;28;20184;-44
2023/05/03 03:03:45;;;;;;;11.77;4.20;;;3.90;99.90;;;;;;5035343;28;20235;-44
2023/05/03 03:06:10;;;;;;;7.20;4.63;;;3.80;99.90;;;;;;5035801;28;20204;-44
2023/05/03 03:08:36;;;;;;;8.07;4.83;;;3.80;99.90;;;;;;5035477;28;20192;-44
2023/05/03 03:11:03;;;;;;;10.37;5.20;;;3.80;99.90;;;;;;5035321;28;20177;-43
2023/05/03 03:13:28;;;;;;;9.10;4.47;;;3.80;99.90;;;;;;5036106;28;20257;-45
2023/05/03 03:15:54;;;;;;;8.70;4.33;;;3.70;99.90;;;;;;5017368;28;20623;-49
2023/05/03 03:18:19;;;;;;;7.87;4.53;;;3.70;99.90;;;;;;5035220;28;20181;-50
2023/05/03 03:20:45;;;;;;;7.70;4.30;;;3.60;99.90;;;;;;5035185;28;20210;-49
2023/05/03 03:23:10;;;;;;;7.20;4.70;;;3.60;99.90;;;;;;5035360;28;20199;-49
2023/05/03 03:25:36;;;;;;;10.53;4.57;;;3.50;99.90;;;;;;5035681;28;20173;-49
2023/05/03 03:28:02;;;;;;;9.30;4.40;;;3.50;99.90;;;;;;5034851;28;20675;-48
2023/05/03 03:30:28;;;;;;;11.77;5.00;;;3.50;99.90;;;;;;5035226;28;20181;-47
2023/05/03 03:32:54;;;;;;;8.17;4.47;;;3.40;99.90;;;;;;5035020;28;20232;-49
2023/05/03 03:35:20;;;;;;;6.83;4.77;;;3.40;99.90;;;;;;5035009;28;20188;-48
2023/05/03 03:37:46;;;;;;;11.33;4.73;;;3.40;99.90;;;;;;5034431;28;20205;-49
2023/05/03 03:40:12;;;;;;;9.27;5.40;;;3.40;99.90;;;;;;5016855;28;20684;-49
2023/05/03 03:42:38;;;;;;;7.13;4.67;;;3.40;99.90;;;;;;5034391;28;20201;-49
2023/05/03 03:45:04;;;;;;;10.93;4.97;;;3.40;99.90;;;;;;5034826;28;20170;-49
2023/05/03 03:47:30;;;;;;;9.33;5.40;;;3.40;99.90;;;;;;5016914;28;20542;-47
2023/05/03 03:49:56;;;;;;;9.37;5.27;;;3.50;99.90;;;;;;5035223;28;20186;-48
2023/05/03 03:52:21;;;;;;;10.20;5.10;;;3.50;99.90;;;;;;5017136;28;20699;-49
2023/05/03 03:54:47;;;;;;;7.13;4.20;;;3.50;99.90;;;;;;5035346;28;20176;-49
2023/05/03 03:57:12;;;;;;;11.50;4.60;;;3.40;99.90;;;;;;5036170;28;20212;-49
2023/05/03 03:59:38;;;;;;;7.77;4.40;;;3.40;99.90;;;;;;5038409;28;20182;-49
2023/05/03 04:02:03;;;;;;;9.70;4.77;;;3.30;99.90;;;;;;5037204;28;20229;-49
2023/05/03 04:04:30;;;;;;;10.40;4.50;;;3.20;99.90;;;;;;5035207;28;20181;-49
2023/05/03 04:06:56;;;;;;;8.10;3.90;;;3.10;99.90;;;;;;5034410;28;20193;-49
2023/05/03 04:09:21;;;;;;;6.57;4.10;;;3.10;99.90;;;;;;5034341;28;20576;-49
2023/05/03 04:11:47;;;;;;;8.70;4.40;;;3.00;99.90;;;;;;5033756;28;20176;-49
2023/05/03 04:14:12;;;;;;;8.83;4.43;;;3.00;99.90;;;;;;5034078;28;20185;-49
2023/05/03 04:16:38;;;;;;;11.47;4.00;;;3.00;99.90;;;;;;5033953;28;20669;-48
2023/05/03 04:19:03;;;;;;;10.40;4.40;;;2.90;99.90;;;;;;5033693;28;20177;-49
2023/05/03 04:21:30;;;;;;;8.30;5.10;;;2.90;99.90;;;;;;5033884;28;20181;-47
2023/05/03 04:23:56;;;;;;;6.47;3.87;;;2.90;99.90;;;;;;5034263;28;20208;-49
2023/05/03 04:26:23;;;;;;;14.63;4.77;;;2.80;99.90;;;;;;5033832;28;20547;-51
2023/05/03 04:28:50;;;;;;;9.20;4.50;;;2.80;99.90;;;;;;5033156;28;20530;-51
2023/05/03 04:31:18;;;;;;;7.97;4.57;;;2.80;99.90;;;;;;5034923;28;20541;-49
2023/05/03 04:33:44;;;;;;;11.90;4.73;;;2.80;99.90;;;;;;5017548;28;20200;-48
2023/05/03 04:36:14;;;;;;;10.73;4.97;;;2.80;99.90;;;;;;5035123;28;20275;-49
2023/05/03 04:38:41;;;;;;;6.83;4.57;;;2.70;99.90;;;;;;5035416;28;20188;-48
2023/05/03 04:41:08;;;;;;;8.67;4.17;;;2.70;99.90;;;;;;5036779;28;20180;-48
2023/05/03 04:43:34;;;;;;;6.83;4.53;;;2.70;99.90;;;;;;5033537;28;20197;-50
2023/05/03 04:46:01;;;;;;;11.53;4.30;;;2.70;99.90;;;;;;5033297;28;20181;-48
2023/05/03 04:48:26;;;;;;;9.97;4.40;;;2.70;99.90;;;;;;5033087;28;20250;-51
2023/05/03 04:50:52;;;;;;;6.07;4.50;;;2.70;99.90;;;;;;5033251;28;20184;-49
2023/05/03 04:53:17;;;;;;;8.87;4.77;;;2.70;99.90;;;;;;5033198;28;20223;-50
2023/05/03 04:55:43;;;;;;;10.67;4.30;;;2.70;99.90;;;;;;5033542;28;20173;-50
2023/05/03 04:58:09;;;;;;;14.50;4.40;;;2.70;99.90;;;;;;5015399;28;20208;-50
2023/05/03 05:00:34;;;;;;;6.83;4.37;;;2.70;99.90;;;;;;5033370;28;20187;-49
2023/05/03 05:03:00;;;;;;;8.83;4.43;;;2.80;99.90;;;;;;5015363;28;20716;-50
2023/05/03 05:05:26;;;;;;;5.73;3.57;;;2.80;99.90;;;;;;5033205;28;20173;-48
2023/05/03 05:07:52;;;;;;;7.87;4.20;;;2.80;99.90;;;;;;5032979;28;20181;-49
2023/05/03 05:10:17;;;;;;;7.60;4.70;;;2.80;99.90;;;;;;5033140;28;20176;-50
2023/05/03 05:12:43;;;;;;;5.17;3.83;;;2.90;99.90;;;;;;5033296;28;20612;-49
2023/05/03 05:15:09;;;;;;;12.67;5.37;;;2.90;99.90;;;;;;5015302;28;20272;-49
2023/05/03 05:17:35;;;;;;;8.30;5.13;;;3.00;99.90;;;;;;5033201;28;20301;-51
2023/05/03 05:20:00;;;;;;;9.60;4.37;;;3.10;99.90;;;;;;5033259;28;20603;-50
2023/05/03 05:22:26;;;;;;;9.53;5.10;;;3.10;99.90;;;;;;5015151;28;20559;-50
2023/05/03 05:24:52;;;;;;;7.83;4.50;;;3.20;99.90;;;;;;5033193;28;20263;-49
2023/05/03 05:27:17;;;;;;;9.70;4.83;;;3.30;99.90;;;;;;5033624;28;20198;-49
2023/05/03 05:29:43;;;;;;;10.37;5.33;;;3.40;99.90;;;;;;5015484;28;20181;-50
2023/05/03 05:32:08;;;;;;;11.60;6.47;;;3.50;99.90;;;;;;5032761;28;20205;-50
2023/05/03 05:34:34;;;;;;;7.30;5.47;;;3.70;99.90;;;;;;5032952;28;20260;-50
2023/05/03 05:36:59;;;;;;;8.30;5.17;;;4.00;99.90;;;;;;5033020;28;20539;-50
2023/05/03 05:39:25;;;;;;;10.93;6.70;;;4.10;99.90;;;;;;5034622;28;20183;-50
2023/05/03 05:41:51;;;;;;;10.23;6.10;;;4.30;99.90;;;;;;5036458;28;20207;-51
2023/05/03 05:44:16;;;;;;;12.93;7.83;;;4.40;99.90;;;;;;5018762;28;20192;-49
2023/05/03 05:46:42;;;;;;;12.57;6.83;;;4.40;99.90;;;;;;5037025;28;20185;-50
2023/05/03 05:49:07;;;;;;;15.47;8.70;;;4.60;99.90;;;;;;5036429;28;20284;-50
2023/05/03 05:51:33;;;;;;;12.90;7.40;;;4.70;99.90;;;;;;5036438;28;20216;-49
2023/05/03 05:53:58;;;;;;;13.87;6.90;;;4.90;99.90;;;;;;5036307;28;20214;-49
2023/05/03 05:56:24;;;;;;;14.33;6.47;;;5.00;99.90;;;;;;5036752;28;20211;-51
2023/05/03 05:58:49;;;;;;;12.93;6.77;;;5.20;99.90;;;;;;5018625;28;20181;-50
2023/05/03 06:01:15;;;;;;;12.70;6.40;;;5.30;99.90;;;;;;5037023;28;20622;-50
2023/05/03 06:03:40;;;;;;;11.40;6.53;;;5.50;99.90;;;;;;5037027;28;20197;-44
2023/05/03 06:06:06;;;;;;;12.50;6.87;;;5.60;99.90;;;;;;5036180;28;20214;-43
2023/05/03 06:08:32;;;;;;;17.93;7.60;;;5.80;99.90;;;;;;5036125;28;20179;-43
2023/05/03 06:10:58;;;;;;;12.07;6.90;;;6.00;99.90;;;;;;5036332;28;20622;-46
2023/05/03 06:13:23;;;;;;;15.13;6.63;;;6.20;99.90;;;;;;5036229;28;20193;-42
2023/05/03 06:15:49;;;;;;;16.20;7.17;;;6.40;99.90;;;;;;5036707;28;20181;-43
2023/05/03 06:18:15;;;;;;;16.73;6.67;;;6.50;99.90;;;;;;5036202;28;20625;-41
2023/05/03 06:20:41;;;;;;;21.73;6.70;;;6.50;99.90;;;;;;5035859;28;20269;-46
2023/05/03 06:23:06;;;;;;;13.20;6.03;;;6.60;99.90;;;;;;5035726;28;20242;-44
2023/05/03 06:25:32;;;;;;;14.30;6.07;;;6.70;99.90;;;;;;5036059;28;20191;-45
2023/05/03 06:27:58;;;;;;;12.83;6.63;;;6.80;99.90;;;;;;5035839;28;20212;-44
2023/05/03 06:30:24;;;;;;;10.00;6.43;;;7.10;99.90;;;;;;5035599;28;20185;-44
2023/05/03 06:32:50;;;;;;;11.20;6.57;;;7.60;99.90;;;;;;5036082;28;20196;-46
2023/05/03 06:35:18;;;;;;;14.23;6.83;;;7.90;99.90;;;;;;5035556;28;20176;-45
2023/05/03 06:37:44;;;;;;;14.23;6.47;;;8.00;99.90;;;;;;5035789;28;20189;-44
2023/05/03 06:40:10;;;;;;;13.23;6.30;;;8.30;99.90;;;;;;5035734;28;20207;-46
2023/05/03 06:42:35;;;;;;;17.40;6.17;;;8.60;99.90;;;;;;5035397;28;20204;-44
2023/05/03 06:45:01;;;;;;;11.00;6.10;;;8.70;99.90;;;;;;5035417;28;20179;-43
2023/05/03 06:47:27;;;;;;;14.47;6.07;;;8.90;99.90;;;;;;5035186;28;20661;-42
2023/05/03 06:49:52;;;;;;;13.90;6.60;;;9.00;99.90;;;;;;5035554;28;20181;-43
2023/05/03 06:52:18;;;;;;;13.67;6.30;;;9.10;99.90;;;;;;5034659;28;20235;-44
2023/05/03 06:54:43;;;;;;;11.17;6.23;;;8.90;99.90;;;;;;5017585;28;20403;-44
2023/05/03 06:57:09;;;;;;;11.40;6.20;;;8.80;99.90;;;;;;5035213;28;20194;-44
2023/05/03 06:59:35;;;;;;;14.63;6.00;;;8.70;99.90;;;;;;5035231;28;20233;-44
2023/05/03 07:02:00;;;;;;;11.60;5.60;;;8.60;99.90;;;;;;5046908;28;20218;-44
2023/05/03 07:04:26;;;;;;;18.63;6.20;;;8.80;99.90;;;;;;5048396;28;20207;-44
2023/05/03 07:06:51;;;;;;;15.47;6.40;;;8.90;99.90;;;;;;5036812;28;20207;-45
2023/05/03 07:09:17;;;;;;;12.60;5.77;;;9.00;99.90;;;;;;5035161;28;20223;-42
2023/05/03 07:11:48;;;;;;;13.43;5.63;;;8.90;99.90;;;;;;5034877;28;20275;-46
2023/05/03 07:14:14;;;;;;;17.93;7.13;;;9.20;99.90;;;;;;5035492;28;20164;-46
2023/05/03 07:16:40;;;;;;;10.60;6.40;;;9.50;99.90;;;;;;5034736;28;20188;-44
2023/05/03 07:19:06;;;;;;;13.67;6.13;;;9.70;99.90;;;;;;5034715;28;20191;-45
2023/05/03 07:21:32;;;;;;;11.27;6.13;;;9.70;99.90;;;;;;5034681;28;20218;-45
2023/05/03 07:23:59;;;;;;;21.67;6.30;;;9.60;99.90;;;;;;5034608;28;20201;-43
2023/05/03 07:26:25;;;;;;;10.13;5.93;;;9.50;99.90;;;;;;5034826;28;20236;-44
2023/05/03 07:28:51;;;;;;;13.00;6.27;;;9.60;99.90;;;;;;5034605;28;20641;-47
2023/05/03 07:31:17;;;;;;;14.27;5.77;;;9.70;99.90;;;;;;5034932;28;20227;-46
2023/05/03 07:33:43;;;;;;;11.43;6.33;;;10.00;99.90;;;;;;5034657;28;20200;-45
2023/05/03 07:36:09;;;;;;;9.80;5.67;;;10.20;99.90;;;;;;5034499;28;20181;-45
2023/05/03 07:38:34;;;;;;;13.20;5.80;;;10.60;99.90;;;;;;5034699;28;20181;-46
2023/05/03 07:41:00;;;;;;;11.23;5.90;;;10.90;99.90;;;;;;5017081;28;20173;-45
2023/05/03 07:43:26;;;;;;;17.33;6.33;;;11.10;99.90;;;;;;5034441;28;20221;-45
2023/05/03 07:45:51;;;;;;;15.40;6.53;;;11.20;99.90;;;;;;5034421;28;20554;-45
2023/05/03 07:48:17;;;;;;;13.27;6.30;;;11.20;99.90;;;;;;5016404;28;20220;-46
2023/05/03 07:50:43;;;;;;;10.20;5.23;;;11.10;99.90;;;;;;5034321;28;20703;-45
2023/05/03 07:53:11;;;;;;;13.50;5.53;;;11.20;99.90;;;;;;5034191;28;20223;-45
2023/05/03 07:55:36;;;;;;;11.50;6.07;;;11.40;99.90;;;;;;5034442;28;20562;-45
2023/05/03 07:58:03;;;;;;;12.63;6.07;;;11.60;99.90;;;;;;5034358;28;20188;-47
2023/05/03 08:00:29;;;;;;;13.07;5.60;;;11.70;99.90;;;;;;5034278;28;20211;-46
2023/05/03 08:02:55;;;;;;;11.20;5.23;;;11.90;99.90;;;;;;5015389;28;20605;-45
2023/05/03 08:05:22;;;;;;;7.43;5.17;;;12.10;99.90;;;;;;5034029;28;20200;-46
2023/05/03 08:07:48;;;;;;;11.43;5.70;;;12.10;99.90;;;;;;5034659;28;20201;-45
2023/05/03 08:10:14;;;;;;;8.83;5.50;;;12.00;99.90;;;;;;5033876;28;20234;-48
2023/05/03 08:12:40;;;;;;;9.93;5.53;;;12.10;99.90;;;;;;5033765;28;20196;-45
2023/05/03 08:15:06;;;;;;;7.67;4.93;;;12.30;99.90;;;;;;5033713;28;20182;-46
2023/05/03 08:17:38;;;;;;;7.20;5.23;;;12.50;99.90;;;;;;5033682;28;20657;-44
2023/05/03 08:20:04;;;;;;;8.73;5.73;;;12.80;99.90;;;;;;5034042;28;20169;-49
2023/05/03 08:22:30;;;;;;;9.87;5.23;;;13.00;99.90;;;;;;5033511;28;20201;-46
2023/05/03 08:24:55;;;;;;;6.93;5.03;;;13.10;99.90;;;;;;5033929;28;20312;-47
2023/05/03 08:27:23;;;;;;;7.10;5.00;;;13.20;99.90;;;;;;5033546;28;20665;-47
2023/05/03 08:29:49;;;;;;;7.13;4.73;;;13.30;99.90;;;;;;5033888;28;20264;-44
2023/05/03 08:32:14;;;;;;;9.73;5.43;;;13.50;99.90;;;;;;5033690;28;20232;-46
2023/05/03 08:34:40;;;;;;;7.60;5.03;;;13.50;99.90;;;;;;5033478;28;20172;-46
2023/05/03 08:37:06;;;;;;;7.77;4.73;;;13.70;99.90;;;;;;5033707;28;20275;-45
2023/05/03 08:39:32;;;;;;;9.50;4.60;;;13.80;99.90;;;;;;5033430;28;20216;-46
2023/05/03 08:41:59;;;;;;;15.17;4.83;;;13.80;99.90;;;;;;5033337;28;20204;-46
2023/05/03 08:44:28;;;;;;;10.50;4.73;;;14.00;99.90;;;;;;5015626;28;20192;-47
2023/05/03 08:46:53;;;;;;;13.93;5.37;;;14.10;99.90;;;;;;5033703;28;20201;-46
2023/05/03 08:49:20;;;;;;;8.33;4.93;;;14.20;99.90;;;;;;5033789;28;20243;-47
2023/05/03 08:51:48;;;;;;;6.83;4.73;;;14.30;99.90;;;;;;5033752;28;20165;-49
2023/05/03 08:54:16;;;;;;;5.67;4.10;;;14.30;99.90;;;;;;5033576;28;20255;-49
2023/05/03 08:56:43;;;;;;;7.53;4.60;;;14.30;99.90;;;;;;5033581;28;20661;-50
2023/05/03 08:59:10;;;;;;;7.73;5.00;;;14.30;99.90;;;;;;5033353;28;20614;-50
2023/05/03 09:01:39;;;;;;;9.90;5.03;;;14.40;99.90;;;;;;5033212;28;20203;-50
2023/05/03 09:04:06;;;;;;;7.13;4.40;;;14.50;99.90;;;;;;5033547;28;20588;-49
2023/05/03 09:06:33;;;;;;;8.87;4.53;;;14.50;99.90;;;;;;5033283;28;20215;-48
2023/05/03 09:08:59;;;;;;;6.27;4.73;;;14.60;99.90;;;;;;5033097;28;20188;-50
2023/05/03 09:11:35;;;;;;;7.43;4.37;;;14.60;99.90;;;;;;5033293;28;20616;-49
2023/05/03 09:14:07;;;;;;;8.40;4.60;;;14.60;99.90;;;;;;5033638;28;20196;-48
2023/05/03 09:16:32;;;;;;;6.00;4.53;;;14.70;99.90;;;;;;5037402;28;20189;-49
2023/05/03 09:19:05;;;;;;;8.00;4.10;;;14.70;99.90;;;;;;5037009;28;20204;-50
2023/05/03 09:21:31;;;;;;;8.30;4.63;;;14.70;99.90;;;;;;5036959;28;20173;-48
2023/05/03 09:23:57;;;;;;;7.07;5.43;;;14.70;99.90;;;;;;5036825;28;20196;-50
2023/05/03 09:26:27;;;;;;;7.43;5.60;;;14.70;99.90;;;;;;5037032;28;20687;-49
2023/05/03 09:28:53;;;;;;;5.83;4.70;;;14.40;99.90;;;;;;5036798;28;20184;-48
2023/05/03 09:31:18;;;;;;;8.27;4.60;;;14.30;99.90;;;;;;5036753;28;20637;-48
2023/05/03 09:33:44;;;;;;;11.57;5.73;;;14.40;99.90;;;;;;5036790;28;20212;-48
2023/05/03 09:36:10;;;;;;;10.27;5.53;;;14.20;99.90;;;;;;5037005;28;20742;-49
2023/05/03 09:38:36;;;;;;;7.37;5.07;;;14.20;99.90;;;;;;5036674;28;20185;-49
2023/05/03 09:41:04;;;;;;;7.50;4.47;;;14.30;99.90;;;;;;5036878;28;20260;-50
2023/05/03 09:43:30;;;;;;;10.17;4.80;;;14.30;99.90;;;;;;5036688;28;20280;-50
2023/05/03 09:46:10;;;;;;;7.37;5.07;;;14.30;99.90;;;;;;5036621;28;20307;-50
2023/05/03 09:48:36;;;;;;;11.77;4.73;;;14.20;99.90;;;;;;5036612;28;20622;-49
2023/05/03 09:51:04;;;;;;;10.33;5.47;;;13.90;99.90;;;;;;5036702;28;20177;-50
2023/05/03 09:53:31;;;;;;;9.50;5.07;;;13.90;99.90;;;;;;5036375;28;20196;-49
2023/05/03 09:56:00;;;;;;;7.47;5.23;;;14.00;99.90;;;;;;5036603;28;20185;-49
2023/05/03 09:58:29;;;;;;;7.87;5.13;;;14.10;99.90;;;;;;5036576;28;20185;-50
2023/05/03 10:00:55;;;;;;;9.50;4.60;;;14.20;99.90;;;;;;5036292;28;20727;-49
2023/05/03 10:03:30;;;;;;;10.87;5.20;;;14.20;99.90;;;;;;5036507;28;20208;-49
2023/05/03 10:06:00;;;;;;;9.80;5.60;;;14.20;99.90;;;;;;5036296;28;20160;-50
2023/05/03 10:08:54;;;;;;;6.83;5.03;;;14.20;99.90;;;;;;5036272;28;20197;-49
2023/05/03 10:11:25;;;;;;;8.40;5.60;;;14.30;99.90;;;;;;5005789;28;20231;-48
2023/05/03 10:13:51;;;;;;;8.13;5.60;;;14.40;99.90;;;;;;5036304;28;20314;-49
2023/05/03 10:16:23;;;;;;;8.03;5.37;;;14.40;99.90;;;;;;5035969;28;20664;-47
2023/05/03 10:19:29;;;;;;;7.23;4.67;;;14.30;99.90;;;;;;5036268;28;20166;-49
2023/05/03 10:22:03;;;;;;;12.60;5.50;;;14.40;99.90;;;;;;5025481;28;20246;-49
2023/05/03 10:24:29;;;;;;;7.47;4.97;;;14.80;99.90;;;;;;5018273;28;20226;-50
2023/05/03 10:26:56;;;;;;;8.13;5.20;;;15.00;99.90;;;;;;5034828;28;20204;-50
2023/05/03 10:29:33;;;;;;;7.57;5.37;;;15.10;99.90;;;;;;5036033;28;20170;-49
2023/05/03 10:32:31;;;;;;;10.13;5.27;;;15.30;99.90;;;;;;5035628;28;20291;-49
2023/05/03 10:35:11;;;;;;;7.90;5.17;;;15.40;99.90;;;;;;5035986;28;20162;-48
2023/05/03 10:37:39;;;;;;;6.57;4.60;;;15.60;99.90;;;;;;5035866;28;20180;-48
2023/05/03 10:40:16;;;;;;;11.80;4.67;;;15.50;99.90;;;;;;5035480;28;20173;-49
2023/05/03 10:42:51;;;;;;;11.37;6.10;;;15.40;99.90;;;;;;5035695;28;20546;-50
2023/05/03 10:45:27;;;;;;;7.50;5.20;;;15.40;99.90;;;;;;5035490;28;20153;-49
2023/05/03 10:48:11;;;;;;;7.93;4.83;;;15.30;99.90;;;;;;5035198;28;20731;-48
2023/05/03 10:50:40;;;;;;;8.37;5.33;;;15.30;99.90;;;;;;5035574;28;20173;-49
2023/05/03 10:53:06;;;;;;;9.00;4.97;;;15.50;99.90;;;;;;5035131;28;20708;-49
2023/05/03 10:55:32;;;;;;;13.00;4.83;;;15.80;99.90;;;;;;5017622;28;20205;-49
2023/05/03 10:57:59;;;;;;;6.23;4.63;;;16.00;99.90;;;;;;5035408;28;20185;-48
2023/05/03 11:00:39;;;;;;;11.03;5.60;;;16.20;99.90;;;;;;5035099;28;20238;-48
2023/05/03 11:03:20;;;;;;;9.53;5.33;;;16.20;99.90;;;;;;5035395;28;20295;-48
2023/05/03 11:05:49;;;;;;;9.53;4.87;;;16.20;99.90;;;;;;5035080;28;20197;-47
2023/05/03 11:08:18;;;;;;;12.23;4.73;;;16.30;99.90;;;;;;5034835;28;20206;-47
2023/05/03 11:10:44;;;;;;;15.83;5.60;;;16.50;99.90;;;;;;5034971;28;20173;-50
2023/05/03 11:13:11;;;;;;;8.43;5.20;;;16.70;99.90;;;;;;5035059;28;20284;-48
2023/05/03 11:15:37;;;;;;;6.07;4.70;;;16.80;99.90;;;;;;5035053;28;20177;-48
2023/05/03 11:18:05;;;;;;;5.73;4.60;;;17.00;99.90;;;;;;5035332;28;20181;-48
2023/05/03 11:20:31;;;;;;;7.20;4.80;;;17.20;99.90;;;;;;5035577;28;20235;-48
2023/05/03 11:22:57;;;;;;;7.80;4.23;;;17.00;99.90;;;;;;5035177;28;20205;-48
2023/05/03 11:25:22;;;;;;;8.17;4.30;;;17.10;99.90;;;;;;5037869;28;20172;-46
2023/05/03 11:27:48;;;;;;;8.07;4.87;;;16.80;99.90;;;;;;5037896;28;20205;-48
2023/05/03 11:30:14;;;;;;;9.50;5.00;;;16.70;99.90;;;;;;5037366;28;20676;-48
2023/05/03 11:32:43;;;;;;;9.73;4.43;;;16.40;99.90;;;;;;5034660;28;20274;-49
2023/05/03 11:35:11;;;;;;;6.17;4.27;;;16.40;99.90;;;;;;5034690;28;20173;-49
2023/05/03 11:37:37;;;;;;;5.87;4.90;;;16.70;99.90;;;;;;5034665;28;20184;-48
2023/05/03 11:40:03;;;;;;;6.93;5.17;;;16.90;99.90;;;;;;5016664;28;20185;-48
2023/05/03 11:42:29;;;;;;;7.03;4.60;;;17.00;99.90;;;;;;5034520;28;20635;-48
2023/05/03 11:44:55;;;;;;;5.77;4.30;;;17.10;99.90;;;;;;5034329;28;20252;-48
2023/05/03 11:47:21;;;;;;;9.97;5.03;;;17.20;99.90;;;;;;5034269;28;20205;-48
2023/05/03 11:49:54;;;;;;;8.63;4.87;;;17.00;99.90;;;;;;5034244;28;20224;-48
2023/05/03 11:52:21;;;;;;;7.90;4.67;;;17.10;99.90;;;;;;5034343;28;20197;-50
2023/05/03 11:54:47;;;;;;;7.47;5.10;;;17.20;99.90;;;;;;5034078;28;20661;-47
2023/05/03 11:57:15;;;;;;;6.80;4.47;;;17.30;99.90;;;;;;5034077;28;20213;-49
2023/05/03 11:59:43;;;;;;;6.20;4.50;;;17.20;99.90;;;;;;5034085;28;20701;-49
2023/05/03 12:02:11;;;;;;;8.93;4.60;;;17.20;99.90;;;;;;5034173;28;20201;-48
2023/05/03 12:04:39;;;;;;;6.83;4.03;;;17.40;99.90;;;;;;5033951;28;20631;-49
2023/05/03 12:07:06;;;;;;;9.33;4.97;;;17.50;99.90;;;;;;5034312;28;20209;-48
2023/05/03 12:09:32;;;;;;;11.40;5.03;;;17.70;99.90;;;;;;5034144;28;20633;-47
2023/05/03 12:11:58;;;;;;;5.73;3.90;;;17.80;99.90;;;;;;5033855;28;20205;-48
2023/05/03 12:14:24;;;;;;;6.27;3.83;;;17.80;99.90;;;;;;5033860;28;20203;-48
2023/05/03 12:16:52;;;;;;;9.83;4.80;;;18.00;99.90;;;;;;5034019;28;20173;-48
2023/05/03 12:19:28;;;;;;;9.47;4.70;;;18.10;99.90;;;;;;5033955;28;20181;-48
2023/05/03 12:21:54;;;;;;;6.37;4.13;;;18.10;99.90;;;;;;5033816;28;20176;-49
2023/05/03 12:24:22;;;;;;;7.23;4.03;;;18.30;99.90;;;;;;5033833;28;20188;-49
2023/05/03 12:26:48;;;;;;;5.00;3.77;;;18.50;99.90;;;;;;5033434;28;20208;-48
2023/05/03 12:29:18;;;;;;;6.10;4.27;;;18.60;99.90;;;;;;5033798;28;20271;-48
2023/05/03 12:31:44;;;;;;;6.30;4.20;;;18.90;99.90;;;;;;5033646;28;20204;-48
2023/05/03 12:34:10;;;;;;;4.70;3.77;;;18.90;99.90;;;;;;5033779;28;20184;-48
2023/05/03 12:36:36;;;;;;;9.03;4.07;;;18.80;99.90;;;;;;5033423;28;20196;-48
2023/05/03 12:39:02;;;;;;;7.23;4.03;;;18.50;99.90;;;;;;5033723;28;20223;-47
2023/05/03 12:41:30;;;;;;;11.40;3.93;;;18.40;99.90;;;;;;5034301;28;20177;-49
2023/05/03 12:43:57;;;;;;;9.27;4.10;;;18.50;99.90;;;;;;5033319;28;20212;-48
2023/05/03 12:46:23;;;;;;;7.10;3.97;;;18.70;99.90;;;;;;5033509;28;20546;-48
2023/05/03 12:48:49;;;;;;;8.13;4.50;;;18.90;99.90;;;;;;5032838;28;20201;-48